createdAt,value
2022-11-16T10:31:56.158Z,100231.92
2022-11-16T10:33:11.311Z,100232.27
2022-11-16T10:34:17.408Z,100235.91
2022-11-16T10:35:45.043Z,100238.70
2022-11-16T10:36:48.259Z,100233.56
2022-11-16T10:37:52.216Z,100220.97
2022-11-16T10:38:56.908Z,100230.37
2022-11-16T10:40:03.711Z,100224.65
2022-11-16T10:41:19.287Z,100224.65
2022-11-16T10:42:34.756Z,100225.75
2022-11-16T10:43:38.208Z,100223.31
2022-11-16T10:45:00.140Z,100217.32
2022-11-16T10:46:06.920Z,100215.09
2022-11-16T10:47:16.585Z,100215.34
2022-11-16T10:48:42.094Z,100220.36
2022-11-16T10:49:55.548Z,100216.87
2022-11-16T10:50:58.519Z,100216.87
2022-11-16T10:52:01.863Z,100216.55
2022-11-16T10:53:05.164Z,100211.76
2022-11-16T10:54:15.428Z,100213.25
2022-11-16T10:55:20.877Z,100201.19
2022-11-16T10:56:27.514Z,100202.68
2022-11-16T10:57:50.462Z,100204.98
2022-11-16T10:59:02.834Z,100205.64
2022-11-16T11:00:12.589Z,100206.08
2022-11-16T11:01:13.986Z,100195.91
2022-11-16T11:02:26.678Z,100204.67
2022-11-16T11:03:31.954Z,100195.12
2022-11-16T11:04:35.506Z,100195.12
2022-11-16T11:05:51.783Z,100192.02
2022-11-16T11:06:57.846Z,100189.95
2022-11-16T11:08:07.326Z,100196.02
2022-11-16T11:09:26.291Z,100189.36
2022-11-16T11:10:38.774Z,100188.15
2022-11-16T11:12:00.367Z,100187.09
2022-11-16T11:13:16.044Z,100186.91
2022-11-16T11:15:35.119Z,100186.59
2022-11-16T11:16:40.580Z,100178.84
2022-11-16T11:17:47.791Z,100181.97
2022-11-16T11:18:50.987Z,100185.33
2022-11-16T11:20:00.403Z,100180.56
2022-11-16T11:21:22.363Z,100188.47
2022-11-16T11:22:25.747Z,100184.73
2022-11-16T11:23:29.030Z,100176.61
2022-11-16T11:24:47.487Z,100181.00
2022-11-16T11:25:42.486Z,100196.22
2022-11-16T11:26:54.934Z,100180.80
2022-11-16T11:28:27.899Z,100186.84
2022-11-16T11:29:33.696Z,100180.39
2022-11-16T11:30:36.763Z,100183.94
2022-11-16T11:31:43.481Z,100182.91
2022-11-16T11:32:47.364Z,100182.91
2022-11-16T11:33:53.460Z,100178.14
2022-11-16T11:34:59.873Z,100178.14
2022-11-16T11:36:09.068Z,100186.05
2022-11-16T11:37:18.489Z,100188.77
2022-11-16T11:38:22.193Z,100183.34
2022-11-16T11:39:36.603Z,100179.80
2022-11-16T11:40:41.064Z,100181.66
2022-11-16T11:41:46.428Z,100176.47
2022-11-16T11:42:58.607Z,100178.95
2022-11-16T11:44:04.907Z,100177.09
2022-11-16T11:45:10.785Z,100176.06
2022-11-16T11:46:20.367Z,100173.34
2022-11-16T11:48:00.715Z,100167.93
2022-11-16T11:48:53.580Z,100179.61
2022-11-16T11:50:08.852Z,100172.51
2022-11-16T11:51:33.323Z,100178.14
2022-11-16T11:52:42.897Z,100165.63
2022-11-16T11:53:49.429Z,100178.53
2022-11-16T11:54:54.556Z,100171.43
2022-11-16T11:55:59.765Z,100181.23
2022-11-16T11:57:05.498Z,100188.52
2022-11-16T11:58:14.975Z,100169.56
2022-11-16T11:59:21.405Z,100159.76
2022-11-16T12:00:25.562Z,100157.70
2022-11-16T12:01:40.835Z,100166.66
2022-11-16T12:03:07.448Z,100171.89
2022-11-16T12:04:26.162Z,100166.47
2022-11-16T12:05:52.692Z,100162.92
2022-11-16T12:07:08.218Z,100158.53
2022-11-16T12:08:30.135Z,100168.34
2022-11-16T12:09:48.695Z,100162.09
2022-11-16T12:10:58.287Z,100156.86
2022-11-16T12:12:14.618Z,100156.86
2022-11-16T12:13:43.750Z,100163.12
2022-11-16T12:15:02.186Z,100164.98
2022-11-16T12:16:17.338Z,100168.53
2022-11-16T12:17:32.717Z,100160.59
2022-11-16T12:19:02.041Z,100161.44
2022-11-16T12:20:40.397Z,100168.72
2022-11-16T12:22:02.011Z,100154.34
2022-11-16T12:23:44.897Z,100162.69
2022-11-16T12:24:56.358Z,100157.46
2022-11-16T12:26:32.976Z,100156.63
2022-11-16T12:28:02.260Z,100156.63
2022-11-16T12:29:30.077Z,100148.91
2022-11-16T12:30:35.994Z,100161.61
2022-11-16T12:31:45.044Z,100154.33
2022-11-16T12:33:04.029Z,100154.33
2022-11-16T12:34:13.901Z,100151.62
2022-11-16T12:35:35.285Z,100154.10
2022-11-16T12:36:53.924Z,100154.94
2022-11-16T12:38:12.639Z,100153.08
2022-11-16T12:39:25.325Z,100149.52
2022-11-16T12:40:50.312Z,100144.11
2022-11-16T12:42:16.351Z,100144.11
2022-11-16T12:43:37.970Z,100141.41
2022-11-16T12:45:05.953Z,100147.66
2022-11-16T12:46:41.344Z,100141.41
2022-11-16T12:47:53.737Z,100145.14
2022-11-16T12:49:00.641Z,100135.37
2022-11-16T12:50:31.596Z,100141.81
2022-11-16T12:51:47.572Z,100142.66
2022-11-16T12:53:15.366Z,100138.88
2022-11-16T12:54:34.046Z,100133.47
2022-11-16T12:55:52.532Z,100138.08
2022-11-16T12:57:16.897Z,100138.08
2022-11-16T12:58:26.193Z,100138.88
2022-11-16T12:59:41.776Z,100136.17
2022-11-16T13:00:59.000Z,100139.72
2022-11-16T13:02:11.413Z,100130.76
2022-11-16T13:04:39.764Z,100130.20
2022-11-16T13:05:58.485Z,100125.16
2022-11-16T13:07:11.597Z,100128.70
2022-11-16T13:08:34.921Z,100124.96
2022-11-16T13:09:44.195Z,100130.38
2022-11-16T13:10:50.655Z,100118.70
2022-11-16T13:11:59.633Z,100124.13
2022-11-16T13:13:35.012Z,100127.67
2022-11-16T13:14:23.978Z,100128.51
2022-11-16T13:15:30.596Z,100127.48
2022-11-16T13:16:34.666Z,100120.20
2022-11-16T13:17:39.474Z,100130.19
2022-11-16T13:18:43.851Z,100125.61
2022-11-16T13:19:53.305Z,100120.20
2022-11-16T13:21:02.935Z,100117.48
2022-11-16T13:22:19.312Z,100119.97
2022-11-16T13:23:42.327Z,100116.42
2022-11-16T13:24:54.930Z,100114.55
2022-11-16T13:26:10.555Z,100111.84
2022-11-16T13:27:17.225Z,100116.42
2022-11-16T13:28:32.134Z,100119.35
2022-11-16T13:29:59.775Z,100120.20
2022-11-16T13:31:14.830Z,100128.32
2022-11-16T13:32:21.288Z,100121.00
2022-11-16T13:33:51.375Z,100118.52
2022-11-16T13:34:54.920Z,100121.22
2022-11-16T13:35:57.972Z,100122.06
2022-11-16T13:37:01.076Z,100115.80
2022-11-16T13:38:10.636Z,100106.84
2022-11-16T13:39:22.316Z,100106.00
2022-11-16T13:40:26.837Z,100112.26
2022-11-16T13:41:33.487Z,100104.97
2022-11-16T13:42:43.214Z,100112.26
2022-11-16T18:36:22.458Z,100021.38
2022-11-16T18:37:25.539Z,100020.73
2022-11-16T18:38:29.131Z,100018.09
2022-11-16T18:39:32.094Z,100013.78
2022-11-16T18:40:35.185Z,100011.16
2022-11-16T18:41:41.826Z,100004.14
2022-11-16T18:42:44.836Z,100008.95
2022-11-16T18:43:59.560Z,100003.80
2022-11-16T18:45:02.576Z,100006.75
2022-11-16T18:46:06.228Z,100002.61
2022-11-16T18:47:09.306Z,100001.21
2022-11-16T18:48:12.414Z,99997.91
2022-11-16T18:49:15.568Z,100002.73
2022-11-16T18:50:25.522Z,99996.08
2022-11-16T18:51:26.872Z,99988.42
2022-11-16T18:52:29.984Z,99994.27
2022-11-16T18:53:33.695Z,99992.83
2022-11-16T18:54:38.068Z,99994.31
2022-11-16T18:55:41.205Z,99989.34
2022-11-16T18:56:44.319Z,99991.66
2022-11-16T18:57:47.825Z,99987.70
2022-11-16T18:58:52.667Z,99995.45
2022-11-16T18:59:57.370Z,99987.95
2022-11-16T19:01:03.288Z,99995.72
2022-11-16T19:02:06.658Z,99992.59
2022-11-16T19:03:11.405Z,99987.83
2022-11-16T19:04:14.785Z,99991.19
2022-11-16T19:05:18.080Z,99991.80
2022-11-16T19:06:22.540Z,99987.04
2022-11-16T19:07:25.720Z,99977.89
2022-11-16T19:08:29.696Z,99982.89
2022-11-16T19:09:33.048Z,99980.83
2022-11-16T19:10:39.389Z,99985.83
2022-11-16T19:11:42.398Z,99982.09
2022-11-16T19:12:45.512Z,99982.93
2022-11-16T19:13:54.725Z,99983.58
2022-11-16T19:14:57.879Z,99980.64
2022-11-16T19:16:01.155Z,99979.62
2022-11-16T19:17:04.766Z,99988.38
2022-11-16T19:18:20.999Z,99983.80
2022-11-16T19:19:12.929Z,99979.01
2022-11-16T19:20:16.457Z,99980.69
2022-11-16T19:21:21.258Z,99971.34
2022-11-16T19:22:24.343Z,99972.14
2022-11-16T19:23:27.353Z,99966.54
2022-11-16T19:24:30.671Z,99966.34
2022-11-16T19:25:33.877Z,99967.80
2022-11-16T19:26:37.083Z,99961.34
2022-11-16T19:27:40.183Z,99963.86
2022-11-16T19:28:48.036Z,99955.74
2022-11-16T19:29:51.278Z,99955.55
2022-11-16T19:30:54.500Z,99958.26
2022-11-16T19:31:57.753Z,99962.64
2022-11-16T19:33:01.333Z,99959.70
2022-11-16T19:34:07.126Z,99962.41
2022-11-16T19:35:11.675Z,99961.38
2022-11-16T19:36:17.488Z,99961.19
2022-11-16T19:37:20.817Z,99959.31
2022-11-16T19:38:24.190Z,99963.70
2022-11-16T19:39:27.360Z,99967.22
2022-11-16T19:40:30.344Z,99968.05
2022-11-16T19:41:33.322Z,99963.47
2022-11-16T19:42:36.545Z,99968.89
2022-11-16T19:43:39.947Z,99963.47
2022-11-16T19:44:43.046Z,99962.44
2022-11-16T19:45:46.215Z,99960.58
2022-11-16T19:46:49.461Z,99956.00
2022-11-16T19:47:52.822Z,99953.28
2022-11-16T19:48:56.212Z,99950.58
2022-11-16T19:49:59.521Z,99951.42
2022-11-16T19:51:11.028Z,99951.22
2022-11-16T19:52:14.248Z,99945.81
2022-11-16T19:53:17.440Z,99951.22
2022-11-16T19:54:20.471Z,99941.20
2022-11-16T19:55:23.540Z,99947.45
2022-11-16T19:56:26.475Z,99933.07
2022-11-16T19:57:29.647Z,99936.62
2022-11-16T19:58:37.757Z,99952.03
2022-11-16T19:59:40.960Z,99941.00
2022-11-16T20:00:44.468Z,99946.42
2022-11-16T20:01:47.522Z,99939.97
2022-11-16T20:02:56.879Z,99942.68
2022-11-16T20:04:02.800Z,99942.88
2022-11-16T20:05:06.789Z,99938.30
2022-11-16T20:06:13.104Z,99932.87
2022-11-16T20:07:17.597Z,99933.91
2022-11-16T20:08:20.767Z,99932.87
2022-11-16T20:09:23.960Z,99941.00
2022-11-16T20:10:28.831Z,99940.16
2022-11-16T20:11:36.032Z,99942.03
2022-11-16T20:12:38.960Z,99945.81
2022-11-16T20:13:42.214Z,99935.78
2022-11-16T20:14:45.337Z,99936.84
2022-11-16T20:15:48.393Z,99934.97
2022-11-16T20:16:52.888Z,99934.14
2022-11-16T20:17:55.966Z,99935.78
2022-11-16T20:18:59.139Z,99933.91
2022-11-16T20:20:02.160Z,99931.20
2022-11-16T20:21:05.859Z,99933.07
2022-11-16T20:22:09.026Z,99930.17
2022-11-16T20:23:14.382Z,99924.75
2022-11-16T20:24:17.838Z,99924.75
2022-11-16T20:25:20.940Z,99926.42
2022-11-16T20:26:25.646Z,99925.59
2022-11-16T20:27:28.664Z,99921.02
2022-11-16T20:28:36.561Z,99915.59
2022-11-16T20:29:39.592Z,99918.30
2022-11-16T20:30:47.554Z,99918.30
2022-11-16T20:31:50.583Z,99921.02
2022-11-16T20:32:53.664Z,99925.59
2022-11-16T20:33:59.068Z,99923.08
2022-11-16T20:35:02.200Z,99929.56
2022-11-16T20:36:08.312Z,99920.80
2022-11-16T20:37:11.375Z,99918.09
2022-11-16T20:38:14.522Z,99920.80
2022-11-16T20:39:19.777Z,99913.51
2022-11-16T20:40:22.653Z,99917.89
2022-11-16T20:41:30.583Z,99907.06
2022-11-16T20:42:33.732Z,99919.53
2022-11-16T20:43:38.737Z,99917.66
2022-11-16T20:44:41.787Z,99918.30
2022-11-16T20:45:44.871Z,99914.77
2022-11-16T20:46:50.042Z,99909.34
2022-11-16T20:47:52.973Z,99912.89
2022-11-16T20:48:56.624Z,99916.23
2022-11-16T20:49:59.589Z,99913.53
2022-11-16T20:51:03.358Z,99913.53
2022-11-16T20:52:06.372Z,99913.53
2022-11-16T20:53:09.287Z,99912.47
2022-11-16T20:54:13.340Z,99913.30
2022-11-16T20:55:16.565Z,99901.63
2022-11-16T20:56:20.135Z,99907.05
2022-11-16T20:57:23.304Z,99904.34
2022-11-16T20:58:26.315Z,99899.77
2022-11-16T20:59:29.459Z,99906.85
2022-11-16T21:00:32.478Z,99904.98
2022-11-16T21:01:36.102Z,99901.23
2022-11-16T21:02:39.235Z,99903.11
2022-11-16T21:03:43.944Z,99895.83
2022-11-16T21:04:46.955Z,99892.08
2022-11-16T21:05:51.672Z,99891.05
2022-11-16T21:06:54.758Z,99892.08
2022-11-16T21:07:58.897Z,99892.69
2022-11-16T21:09:03.339Z,99893.53
2022-11-16T21:10:19.611Z,99887.27
2022-11-16T21:11:26.529Z,99892.69
2022-11-16T21:12:48.158Z,99891.05
2022-11-16T21:14:09.945Z,99898.95
2022-11-16T21:15:13.275Z,99897.27
2022-11-16T21:16:16.346Z,99900.20
2022-11-16T21:17:19.314Z,99895.83
2022-11-16T21:18:26.486Z,99893.95
2022-11-16T21:19:27.394Z,99890.41
2022-11-16T21:20:30.997Z,99887.70
2022-11-16T21:21:34.418Z,99882.28
2022-11-16T21:22:37.312Z,99888.53
2022-11-16T21:23:47.300Z,99892.92
2022-11-16T21:24:50.414Z,99889.14
2022-11-16T21:25:53.284Z,99884.56
2022-11-16T21:26:56.252Z,99882.69
2022-11-16T21:27:59.240Z,99882.50
2022-11-16T21:29:03.054Z,99883.33
2022-11-16T21:30:07.085Z,99885.84
2022-11-16T21:31:12.778Z,99877.91
2022-11-16T21:32:15.790Z,99881.46
2022-11-16T21:33:18.886Z,99885.01
2022-11-16T21:34:23.918Z,99882.30
2022-11-16T21:35:27.051Z,99875.01
2022-11-16T21:36:32.122Z,99871.23
2022-11-16T21:37:35.140Z,99877.72
2022-11-16T21:38:38.433Z,99869.36
2022-11-16T21:39:41.343Z,99873.94
2022-11-16T21:40:44.294Z,99871.23
2022-11-16T21:41:47.189Z,99870.20
2022-11-16T21:42:51.482Z,99867.48
2022-11-16T21:43:54.633Z,99868.13
2022-11-16T21:44:57.595Z,99861.88
2022-11-16T21:46:02.721Z,99868.13
2022-11-16T21:47:05.710Z,99867.30
2022-11-16T21:48:08.749Z,99868.13
2022-11-16T21:49:11.669Z,99862.71
2022-11-16T21:50:31.293Z,99864.39
2022-11-16T21:51:21.702Z,99862.71
2022-11-16T21:52:24.904Z,99862.71
2022-11-16T21:53:27.945Z,99860.00
2022-11-16T21:54:42.279Z,99861.67
2022-11-16T21:55:48.103Z,99861.88
2022-11-16T21:56:50.975Z,99858.33
2022-11-16T21:57:53.928Z,99860.20
2022-11-16T21:58:57.181Z,99851.23
2022-11-16T22:00:00.731Z,99853.75
2022-11-16T22:01:03.714Z,99855.63
2022-11-16T22:02:06.806Z,99851.05
2022-11-16T22:03:09.793Z,99853.75
2022-11-16T22:04:31.031Z,99847.30
2022-11-16T22:05:52.226Z,99851.88
2022-11-16T22:07:13.994Z,99842.72
2022-11-16T22:08:17.007Z,99847.09
2022-11-16T22:09:20.405Z,99841.87
2022-11-16T22:10:23.566Z,99840.01
2022-11-16T22:11:41.446Z,99846.46
2022-11-16T22:12:44.567Z,99841.87
2022-11-16T22:13:48.844Z,99838.33
2022-11-16T22:14:51.859Z,99834.59
2022-11-16T22:15:54.937Z,99832.91
2022-11-16T22:16:58.064Z,99831.05
2022-11-16T22:18:01.124Z,99827.30
2022-11-16T22:19:04.148Z,99827.50
2022-11-16T22:20:08.606Z,99831.88
2022-11-16T22:21:11.999Z,99833.75
2022-11-16T22:22:14.971Z,99831.88
2022-11-16T22:23:22.656Z,99829.17
2022-11-16T22:24:23.404Z,99831.88
2022-11-16T22:25:26.702Z,99826.46
2022-11-16T22:26:29.691Z,99824.59
2022-11-16T22:27:42.394Z,99829.78
2022-11-16T22:28:38.820Z,99827.91
2022-11-16T22:29:41.839Z,99827.07
2022-11-16T22:30:50.085Z,99816.03
2022-11-16T22:31:49.761Z,99814.16
2022-11-16T22:32:52.753Z,99808.74
2022-11-16T22:33:55.761Z,99813.13
2022-11-16T22:34:58.871Z,99815.83
2022-11-16T22:36:02.899Z,99813.13
2022-11-16T22:37:05.932Z,99812.29
2022-11-16T22:38:08.859Z,99809.58
2022-11-16T22:39:12.047Z,99810.41
2022-11-16T22:40:17.851Z,99805.20
2022-11-16T22:41:20.314Z,99806.03
2022-11-16T22:42:23.163Z,99805.20
2022-11-16T22:43:28.145Z,99809.78
2022-11-16T22:44:31.158Z,99802.69
2022-11-16T22:45:34.133Z,99802.92
2022-11-16T22:46:37.189Z,99801.05
2022-11-16T22:47:40.162Z,99805.39
2022-11-16T22:48:44.411Z,99802.69
2022-11-16T22:49:47.550Z,99803.52
2022-11-16T22:50:50.620Z,99801.66
2022-11-16T22:51:53.654Z,99800.61
2022-11-16T22:52:58.348Z,99796.88
2022-11-16T22:54:04.016Z,99796.67
2022-11-16T22:55:07.542Z,99805.60
2022-11-16T22:56:11.128Z,99799.15
2022-11-16T22:57:14.103Z,99791.02
2022-11-16T22:58:17.103Z,99791.02
2022-11-16T22:59:20.040Z,99796.44
2022-11-16T23:00:23.303Z,99794.56
2022-11-16T23:01:26.343Z,99786.44
2022-11-16T23:02:29.531Z,99792.69
2022-11-16T23:03:33.043Z,99788.95
2022-11-16T23:04:36.250Z,99799.78
2022-11-16T23:05:39.354Z,99795.20
2022-11-16T23:06:42.489Z,99793.33
2022-11-16T23:07:45.548Z,99789.78
2022-11-16T23:08:48.676Z,99788.75
2022-11-16T23:09:51.701Z,99785.20
2022-11-16T23:11:25.279Z,99785.20
2022-11-16T23:12:46.448Z,99780.82
2022-11-16T23:14:08.666Z,99785.20
2022-11-16T23:15:30.763Z,99791.66
2022-11-16T23:16:34.475Z,99785.60
2022-11-16T23:17:37.488Z,99781.22
2022-11-16T23:18:40.455Z,99785.84
2022-11-16T23:20:02.101Z,99782.29
2022-11-16T23:21:23.815Z,99776.88
2022-11-16T23:22:28.716Z,99785.00
2022-11-16T23:23:50.062Z,99784.16
2022-11-16T23:25:11.312Z,99786.03
2022-11-16T23:26:39.436Z,99789.58
2022-11-16T23:27:52.276Z,99792.48
2022-11-16T23:28:55.305Z,99781.66
2022-11-16T23:30:09.220Z,99782.69
2022-11-16T23:31:09.034Z,99786.23
2022-11-16T23:32:12.093Z,99777.27
2022-11-16T23:33:15.263Z,99778.11
2022-11-16T23:34:19.462Z,99779.78
2022-11-16T23:35:22.798Z,99773.53
2022-11-16T23:36:25.910Z,99776.23
2022-11-16T23:37:28.904Z,99775.00
2022-11-16T23:38:31.964Z,99777.70
2022-11-16T23:39:34.917Z,99775.80
2022-11-16T23:40:39.347Z,99773.93
2022-11-16T23:42:00.677Z,99778.31
2022-11-16T23:43:23.152Z,99774.77
2022-11-16T23:44:26.323Z,99772.89
2022-11-16T23:45:29.427Z,99774.77
2022-11-16T23:46:33.392Z,99774.77
2022-11-16T23:47:36.314Z,99767.48
2022-11-16T23:48:39.400Z,99773.93
2022-11-16T23:49:42.332Z,99773.09
2022-11-16T23:50:45.650Z,99769.34
2022-11-16T23:51:48.715Z,99767.48
2022-11-16T23:52:51.888Z,99760.19
2022-11-16T23:53:55.553Z,99773.73
2022-11-16T23:54:58.629Z,99769.14
2022-11-16T23:56:05.824Z,99767.27
2022-11-16T23:57:07.642Z,99760.81
2022-11-16T23:58:14.589Z,99764.56
2022-11-16T23:59:17.675Z,99767.07
